createdAt,value
2023-04-15T00:03:02.398Z,99513.56
2023-04-15T00:06:04.898Z,99512.41
2023-04-15T00:09:07.229Z,99504.63
2023-04-15T00:12:09.794Z,99507.75
2023-04-15T00:15:12.608Z,99506.56
2023-04-15T00:18:14.976Z,99507.75
2023-04-15T00:21:17.291Z,99520.19
2023-04-15T00:24:19.654Z,99498.41
2023-04-15T00:27:22.062Z,99510.06
2023-04-15T00:30:24.387Z,99503.06
2023-04-15T00:33:26.815Z,99505.41
2023-04-15T00:36:29.169Z,99510.06
2023-04-15T00:39:31.742Z,99501.13
2023-04-15T00:42:35.096Z,99492.56
2023-04-15T00:45:37.493Z,99497.63
2023-04-15T00:48:40.828Z,99515.13
2023-04-15T00:51:43.194Z,99512.41
2023-04-15T00:54:45.674Z,99515.13
2023-04-15T00:57:48.573Z,99506.97
2023-04-15T01:00:54.437Z,99502.69
2023-04-15T01:04:00.526Z,99499.56
2023-04-15T01:07:02.991Z,99493.72
2023-04-15T01:10:05.816Z,99508.91
2023-04-15T01:13:08.184Z,99510.84
2023-04-15T01:16:11.879Z,99504.63
2023-04-15T01:19:14.979Z,99515.53
2023-04-15T01:22:17.596Z,99514.75
2023-04-15T01:25:28.034Z,99495.28
2023-04-15T01:28:30.742Z,99488.28
2023-04-15T01:31:33.543Z,99499.94
2023-04-15T01:34:36.211Z,99505.03
2023-04-15T01:37:38.553Z,99488.28
2023-04-15T01:40:40.998Z,99507.75
2023-04-15T01:43:43.365Z,99482.03
2023-04-15T01:46:45.817Z,99508.91
2023-04-15T01:49:48.308Z,99488.28
2023-04-15T01:52:51.191Z,99497.63
2023-04-15T01:55:54.131Z,99488.66
2023-04-15T01:58:57.046Z,99502.28
2023-04-15T02:02:00.058Z,99488.66
2023-04-15T02:05:04.844Z,99498.41
2023-04-15T02:08:07.178Z,99503.47
2023-04-15T02:11:12.041Z,99494.50
2023-04-15T02:14:14.496Z,99498.78
2023-04-15T02:17:17.441Z,99455.97
2023-04-15T02:20:21.443Z,99508.91
2023-04-15T02:23:23.851Z,99500.75
2023-04-15T02:26:26.274Z,99485.94
2023-04-15T02:29:32.535Z,99491.41
2023-04-15T02:32:38.128Z,99504.63
2023-04-15T02:35:44.217Z,99503.47
2023-04-15T02:38:46.574Z,99506.19
2023-04-15T02:41:53.380Z,99492.94
2023-04-15T02:44:57.324Z,99492.19
2023-04-15T02:48:06.717Z,99501.91
2023-04-15T02:51:20.135Z,99506.97
2023-04-15T02:54:23.132Z,99501.13
2023-04-15T02:57:26.178Z,99503.84
2023-04-15T03:00:28.640Z,99505.03
2023-04-15T03:03:31.227Z,99505.81
2023-04-15T03:06:33.681Z,99492.56
2023-04-15T03:09:36.344Z,99492.56
2023-04-15T03:12:39.578Z,99488.28
2023-04-15T03:15:42.235Z,99502.31
2023-04-15T03:18:45.425Z,99501.13
2023-04-15T03:21:48.227Z,99529.16
2023-04-15T03:24:50.728Z,99506.97
2023-04-15T03:27:53.271Z,99491.41
2023-04-15T03:30:56.091Z,99478.16
2023-04-15T03:33:58.443Z,99489.06
2023-04-15T03:37:01.135Z,99489.44
2023-04-15T03:40:03.616Z,99482.84
2023-04-15T03:43:05.929Z,99494.91
2023-04-15T03:46:08.272Z,99492.94
2023-04-15T03:49:11.276Z,99494.13
2023-04-15T03:52:13.693Z,99477.00
2023-04-15T03:55:16.192Z,99491.41
2023-04-15T03:58:18.958Z,99495.28
2023-04-15T04:01:21.464Z,99498.41
2023-04-15T04:04:24.070Z,99486.34
2023-04-15T04:07:26.661Z,99478.94
2023-04-15T04:10:29.036Z,99504.25
2023-04-15T04:13:31.360Z,99480.88
2023-04-15T04:16:33.769Z,99501.91
2023-04-15T04:19:36.166Z,99490.22
2023-04-15T04:22:41.798Z,99503.84
2023-04-15T04:25:44.165Z,99507.34
2023-04-15T04:28:46.617Z,99487.50
2023-04-15T04:31:49.264Z,99502.69
2023-04-15T04:34:51.607Z,99501.91
2023-04-15T04:37:53.962Z,99490.63
2023-04-15T04:40:56.445Z,99489.06
2023-04-15T04:43:58.797Z,99489.06
2023-04-15T04:47:01.170Z,99498.78
2023-04-15T04:50:03.720Z,99513.59
2023-04-15T04:53:06.153Z,99499.97
2023-04-15T04:56:08.669Z,99506.97
2023-04-15T04:59:11.034Z,99499.56
2023-04-15T05:02:13.503Z,99503.06
2023-04-15T05:05:16.322Z,99507.75
2023-04-15T05:08:18.747Z,99486.72
2023-04-15T05:11:21.126Z,99481.28
2023-04-15T05:14:23.538Z,99491.41
2023-04-15T05:17:25.885Z,99488.28
2023-04-15T05:20:28.365Z,99498.00
2023-04-15T05:23:30.761Z,99482.03
2023-04-15T05:26:33.125Z,99488.28
2023-04-15T05:29:35.690Z,99489.06
2023-04-15T05:32:38.290Z,99475.81
2023-04-15T05:35:40.696Z,99483.97
2023-04-15T05:38:43.065Z,99500.72
2023-04-15T05:41:45.445Z,99501.91
2023-04-15T05:44:47.873Z,99481.25
2023-04-15T05:47:51.041Z,99499.56
2023-04-15T05:50:53.535Z,99503.44
2023-04-15T05:53:55.946Z,99511.25
2023-04-15T05:56:58.513Z,99499.53
2023-04-15T06:00:01.049Z,99497.97
2023-04-15T06:03:04.152Z,99496.81
2023-04-15T06:06:07.799Z,99518.22
2023-04-15T06:09:10.119Z,99513.19
2023-04-15T06:12:13.217Z,99498.38
2023-04-15T06:15:15.656Z,99524.88
2023-04-15T06:18:17.982Z,99528.00
2023-04-15T06:21:20.400Z,99521.75
2023-04-15T06:24:22.771Z,99524.88
2023-04-15T06:27:25.320Z,99514.38
2023-04-15T06:30:27.716Z,99486.72
2023-04-15T06:33:30.162Z,99518.25
2023-04-15T06:36:32.751Z,99520.22
2023-04-15T06:39:35.107Z,99516.31
2023-04-15T06:42:38.373Z,99541.22
2023-04-15T06:45:40.835Z,99530.34
2023-04-15T06:48:43.209Z,99547.09
2023-04-15T06:51:45.614Z,99535.41
2023-04-15T06:54:48.030Z,99551.38
2023-04-15T06:57:50.408Z,99531.91
2023-04-15T07:00:53.266Z,99548.25
2023-04-15T07:03:55.646Z,99552.53
2023-04-15T07:06:57.985Z,99546.69
2023-04-15T07:10:02.130Z,99557.59
2023-04-15T07:13:04.555Z,99569.69
2023-04-15T07:16:06.912Z,99563.06
2023-04-15T07:19:09.321Z,99557.59
2023-04-15T07:22:11.891Z,99561.09
2023-04-15T07:25:14.243Z,99552.16
2023-04-15T07:28:16.856Z,99561.88
2023-04-15T07:31:19.356Z,99565.41
2023-04-15T07:34:21.755Z,99563.06
2023-04-15T07:37:24.233Z,99565.38
2023-04-15T07:40:26.694Z,99574.72
2023-04-15T07:43:29.189Z,99569.25
2023-04-15T07:46:31.886Z,99575.06
2023-04-15T07:49:34.207Z,99563.00
2023-04-15T07:52:39.507Z,99564.19
2023-04-15T07:55:41.811Z,99564.19
2023-04-15T07:58:44.155Z,99563.81
2023-04-15T08:01:46.772Z,99573.53
2023-04-15T08:04:49.238Z,99580.13
2023-04-15T08:07:51.740Z,99584.41
2023-04-15T08:10:54.081Z,99577.78
2023-04-15T08:13:56.621Z,99590.63
2023-04-15T08:16:58.994Z,99585.16
2023-04-15T08:20:01.454Z,99594.50
2023-04-15T08:23:04.782Z,99578.53
2023-04-15T08:26:07.718Z,99590.97
2023-04-15T08:29:10.032Z,99573.84
2023-04-15T08:32:12.382Z,99575.38
2023-04-15T08:35:15.510Z,99595.25
2023-04-15T08:38:18.286Z,99595.63
2023-04-15T08:41:25.451Z,99578.50
2023-04-15T08:44:29.614Z,99583.56
2023-04-15T08:47:32.256Z,99597.97
2023-04-15T08:50:35.244Z,99587.09
2023-04-15T08:53:37.832Z,99576.16
2023-04-15T08:56:40.879Z,99583.16
2023-04-15T08:59:43.691Z,99563.66
2023-04-15T09:02:46.961Z,99579.97
2023-04-15T09:05:52.684Z,99581.56
2023-04-15T09:08:55.826Z,99578.06
2023-04-15T09:11:58.263Z,99577.63
2023-04-15T09:15:01.468Z,99588.94
2023-04-15T09:18:04.310Z,99583.09
2023-04-15T09:21:09.047Z,99575.69
2023-04-15T09:24:11.457Z,99589.31
2023-04-15T09:27:16.813Z,99581.53
2023-04-15T09:30:19.196Z,99576.88
2023-04-15T09:33:21.578Z,99564.44
2023-04-15T09:36:25.252Z,99585.06
2023-04-15T09:39:27.560Z,99569.09
2023-04-15T09:42:29.982Z,99576.88
2023-04-15T09:45:33.705Z,99565.19
2023-04-15T09:48:36.746Z,99557.38
2023-04-15T09:51:39.419Z,99543.75
2023-04-15T09:54:41.761Z,99555.03
2023-04-15T09:57:47.277Z,99567.50
2023-04-15T10:00:51.913Z,99541.00
2023-04-15T10:03:57.002Z,99570.59
2023-04-15T10:06:59.602Z,99565.94
2023-04-15T10:10:05.436Z,99548.81
2023-04-15T10:13:08.411Z,99562.84
2023-04-15T10:16:12.695Z,99579.97
2023-04-15T10:19:16.565Z,99577.63
2023-04-15T10:22:19.019Z,99575.31
2023-04-15T10:25:21.677Z,99575.31
2023-04-15T10:28:24.178Z,99564.00
2023-04-15T10:31:26.762Z,99562.44
2023-04-15T10:34:30.221Z,99564.41
2023-04-15T10:37:38.345Z,99576.06
2023-04-15T10:40:41.191Z,99560.50
2023-04-15T10:43:57.962Z,99570.25
2023-04-15T10:47:00.594Z,99557.34
2023-04-15T10:50:03.723Z,99555.78
2023-04-15T10:53:06.220Z,99568.28
2023-04-15T10:56:08.851Z,99575.31
2023-04-15T10:59:11.308Z,99567.13
2023-04-15T11:02:14.279Z,99578.44
2023-04-15T11:05:17.650Z,99571.81
2023-04-15T11:08:20.586Z,99588.94
2023-04-15T11:11:23.242Z,99593.25
2023-04-15T11:14:25.764Z,99593.25
2023-04-15T11:17:31.470Z,99575.72
2023-04-15T11:20:34.163Z,99581.59
2023-04-15T11:23:44.238Z,99605.72
2023-04-15T11:26:46.704Z,99585.47
2023-04-15T11:29:49.126Z,99580.78
2023-04-15T11:32:53.080Z,99615.84
2023-04-15T11:35:55.487Z,99606.13
2023-04-15T11:38:59.226Z,99608.47
2023-04-15T11:42:01.609Z,99600.28
2023-04-15T11:45:15.292Z,99602.22
2023-04-15T11:48:18.480Z,99609.22
2023-04-15T11:51:22.713Z,99607.28
2023-04-15T11:54:25.071Z,99619.34
2023-04-15T11:57:32.101Z,99613.91
2023-04-15T12:00:35.307Z,99620.53
2023-04-15T12:03:49.100Z,99610.00
2023-04-15T12:06:51.743Z,99608.09
2023-04-15T12:09:57.939Z,99609.25
2023-04-15T12:13:00.380Z,99628.34
2023-04-15T12:16:03.823Z,99614.34
2023-04-15T12:19:10.078Z,99606.53
2023-04-15T12:22:16.172Z,99606.53
2023-04-15T12:25:18.543Z,99627.19
2023-04-15T12:28:20.914Z,99631.88
2023-04-15T12:31:23.847Z,99615.13
2023-04-15T12:34:33.366Z,99626.03
2023-04-15T12:37:35.826Z,99623.72
2023-04-15T12:40:38.185Z,99649.44
2023-04-15T12:43:40.582Z,99644.34
2023-04-15T12:46:43.015Z,99645.53
2023-04-15T12:49:45.790Z,99644.75
2023-04-15T12:52:48.151Z,99645.53
2023-04-15T12:55:50.494Z,99637.72
2023-04-15T12:58:53.177Z,99652.19
2023-04-15T13:01:55.734Z,99649.06
2023-04-15T13:04:58.296Z,99652.97
2023-04-15T13:08:00.956Z,99653.00
2023-04-15T13:11:03.850Z,99666.25
2023-04-15T13:14:08.463Z,99660.78
2023-04-15T13:17:11.590Z,99648.72
2023-04-15T13:20:14.291Z,99658.47
2023-04-15T13:23:17.050Z,99670.16
2023-04-15T13:26:19.480Z,99672.91
2023-04-15T13:29:22.290Z,99663.94
2023-04-15T13:32:24.665Z,99673.69
2023-04-15T13:35:27.159Z,99669.78
2023-04-15T13:38:29.500Z,99665.09
2023-04-15T13:41:32.302Z,99669.00
2023-04-15T13:44:35.237Z,99665.13
2023-04-15T13:47:37.693Z,99672.13
2023-04-15T13:50:41.801Z,99665.91
2023-04-15T13:53:44.406Z,99675.25
2023-04-15T13:56:46.785Z,99668.25
2023-04-15T13:59:49.193Z,99677.63
2023-04-15T14:02:52.013Z,99686.19
2023-04-15T14:05:56.198Z,99697.50
2023-04-15T14:08:58.616Z,99702.59
2023-04-15T14:12:01.584Z,99701.03
2023-04-15T14:15:04.444Z,99695.97
2023-04-15T14:18:07.604Z,99700.66
2023-04-15T14:21:10.030Z,99703.38
2023-04-15T14:24:12.396Z,99686.63
2023-04-15T14:27:15.517Z,99680.38
2023-04-15T14:30:17.950Z,99693.66
2023-04-15T14:33:20.434Z,99707.28
2023-04-15T14:36:22.971Z,99687.03
2023-04-15T14:39:25.495Z,99713.53
2023-04-15T14:42:27.846Z,99708.47
2023-04-15T14:45:30.754Z,99726.41
2023-04-15T14:48:33.190Z,99717.44
2023-04-15T14:51:35.692Z,99726.03
2023-04-15T14:54:38.220Z,99721.31
2023-04-15T14:57:41.669Z,99737.31
2023-04-15T15:00:44.601Z,99732.25
2023-04-15T15:03:47.972Z,99735.34
2023-04-15T15:06:50.905Z,99737.28
2023-04-15T15:09:54.332Z,99725.19
2023-04-15T15:12:56.686Z,99737.28
2023-04-15T15:15:59.281Z,99724.81
2023-04-15T15:19:01.763Z,99747.03
2023-04-15T15:22:04.464Z,99734.56
2023-04-15T15:25:06.929Z,99728.31
2023-04-15T15:28:09.378Z,99750.16
2023-04-15T15:31:11.823Z,99753.28
2023-04-15T15:34:14.335Z,99746.25
2023-04-15T15:37:16.695Z,99757.16
2023-04-15T15:40:19.318Z,99761.44
2023-04-15T15:43:21.675Z,99761.06
2023-04-15T15:46:24.385Z,99770.00
2023-04-15T15:49:46.280Z,99771.56
2023-04-15T15:52:48.712Z,99769.63
2023-04-15T15:55:53.179Z,99775.47
2023-04-15T15:58:56.169Z,99764.13
2023-04-15T16:01:59.047Z,99780.91
2023-04-15T16:05:01.571Z,99778.97
2023-04-15T16:08:04.108Z,99767.25
2023-04-15T16:11:06.481Z,99768.78
2023-04-15T16:14:08.887Z,99790.66
2023-04-15T16:17:11.374Z,99787.13
2023-04-15T16:20:13.695Z,99805.06
2023-04-15T16:23:16.922Z,99812.06
2023-04-15T16:26:19.420Z,99804.63
2023-04-15T16:29:21.852Z,99819.84
2023-04-15T16:32:24.455Z,99822.19
2023-04-15T16:35:26.835Z,99831.13
2023-04-15T16:38:29.173Z,99814.34
2023-04-15T16:41:33.237Z,99830.72
2023-04-15T16:44:36.902Z,99825.63
2023-04-15T16:47:39.300Z,99807.66
2023-04-15T16:50:41.682Z,99821.31
2023-04-15T16:53:44.041Z,99850.97
2023-04-15T16:56:46.400Z,99857.97
2023-04-15T16:59:48.805Z,99844.25
2023-04-15T17:02:51.278Z,99858.69
2023-04-15T17:05:53.733Z,99859.84
2023-04-15T17:08:56.214Z,99858.66
2023-04-15T17:11:58.783Z,99866.84
2023-04-15T17:15:01.265Z,99875.03
2023-04-15T17:18:04.857Z,99862.13
2023-04-15T17:21:07.429Z,99866.78
2023-04-15T17:24:09.806Z,99873.03
2023-04-15T17:27:12.157Z,99878.47
2023-04-15T17:30:14.615Z,99874.53
2023-04-15T17:33:55.918Z,99862.81
2023-04-15T17:36:39.418Z,99894.03
2023-04-15T17:39:41.741Z,99886.22
2023-04-15T17:42:44.166Z,99885.41
2023-04-15T17:45:47.567Z,99885.38
2023-04-15T17:48:50.227Z,99879.84
2023-04-15T17:51:54.901Z,99887.69
2023-04-15T17:54:57.259Z,99895.88
2023-04-15T17:58:00.452Z,99905.59
2023-04-15T18:01:02.941Z,99923.94
2023-04-15T18:04:06.390Z,99925.84
2023-04-15T18:07:09.481Z,99922.72
2023-04-15T18:10:12.185Z,99922.59
2023-04-15T18:13:14.628Z,99934.72
2023-04-15T18:16:17.116Z,99940.56
2023-04-15T18:19:19.661Z,99951.53
2023-04-15T18:22:22.268Z,99955.00
2023-04-15T18:25:24.867Z,99956.94
2023-04-15T18:28:27.366Z,99954.13
2023-04-15T18:31:29.956Z,99965.84
2023-04-15T18:34:32.596Z,99978.69
2023-04-15T18:37:35.473Z,99975.91
2023-04-15T18:40:37.972Z,99984.91
2023-04-15T18:43:40.543Z,99967.25
2023-04-15T18:46:43.090Z,99988.75
2023-04-15T18:49:45.630Z,99991.41
2023-04-15T18:52:48.195Z,99993.72
2023-04-15T18:55:50.792Z,99996.44
2023-04-15T18:59:10.175Z,100012.44
2023-04-15T19:02:16.018Z,100010.09
2023-04-15T19:05:18.697Z,100004.94
2023-04-15T19:08:21.264Z,100017.81
2023-04-15T19:11:23.986Z,100024.47
2023-04-15T19:14:26.289Z,100029.50
2023-04-15T19:17:28.994Z,100024.84
2023-04-15T19:20:32.294Z,100013.00
2023-04-15T19:23:36.816Z,100018.13
2023-04-15T19:26:39.425Z,100020.41
2023-04-15T19:29:41.990Z,100038.38
2023-04-15T19:32:44.595Z,100046.94
2023-04-15T19:35:49.982Z,100049.66
2023-04-15T19:38:52.744Z,100061.31
2023-04-15T19:41:56.012Z,100058.91
2023-04-15T19:44:58.608Z,100067.88
2023-04-15T19:48:01.116Z,100067.88
2023-04-15T19:51:03.746Z,100068.25
2023-04-15T19:54:06.577Z,100054.19
2023-04-15T19:57:09.226Z,100037.69
2023-04-15T20:00:12.327Z,100047.41
2023-04-15T20:03:14.953Z,100059.13
2023-04-15T20:06:17.627Z,100068.53
2023-04-15T20:09:20.164Z,100064.13
2023-04-15T20:12:49.665Z,100088.03
2023-04-15T20:15:45.243Z,100064.13
2023-04-15T20:18:47.808Z,100094.94
2023-04-15T20:21:52.108Z,100096.16
2023-04-15T20:24:55.115Z,100094.13
2023-04-15T20:28:00.394Z,100085.84
2023-04-15T20:31:03.617Z,100114.44
2023-04-15T20:34:06.402Z,100115.22
2023-04-15T20:37:08.864Z,100114.38
2023-04-15T20:40:11.917Z,100119.81
2023-04-15T20:43:14.602Z,100114.69
2023-04-15T20:46:21.245Z,100121.41
2023-04-15T20:49:24.177Z,100107.63
2023-04-15T20:52:26.502Z,100102.94
2023-04-15T20:55:30.699Z,100116.59
2023-04-15T20:58:33.266Z,100134.53
2023-04-15T21:01:35.793Z,100104.41
2023-04-15T21:04:38.942Z,100132.13
2023-04-15T21:07:41.399Z,100133.38
2023-04-15T21:10:43.785Z,100132.59
2023-04-15T21:13:46.537Z,100136.47
2023-04-15T21:16:49.008Z,100132.97
2023-04-15T21:19:51.373Z,100143.88
2023-04-15T21:22:53.810Z,100125.88
2023-04-15T21:25:56.693Z,100143.88
2023-04-15T21:28:59.094Z,100141.41
2023-04-15T21:32:01.545Z,100146.16
2023-04-15T21:35:04.186Z,100139.78
2023-04-15T21:38:06.527Z,100153.56
2023-04-15T21:41:09.815Z,100155.06
2023-04-15T21:44:13.980Z,100164.75
2023-04-15T21:47:17.387Z,100177.28
2023-04-15T21:50:19.958Z,100161.16
2023-04-15T21:53:22.275Z,100163.09
2023-04-15T21:56:25.862Z,100177.63
2023-04-15T21:59:28.313Z,100163.88
2023-04-15T22:02:30.966Z,100185.03
2023-04-15T22:05:33.524Z,100161.81
2023-04-15T22:08:48.124Z,100184.88
2023-04-15T22:11:55.371Z,100185.34
2023-04-15T22:14:57.790Z,100186.06
2023-04-15T22:18:00.213Z,100193.56
2023-04-15T22:21:02.651Z,100189.56
2023-04-15T22:24:38.497Z,100206.38
2023-04-15T22:27:28.054Z,100205.13
2023-04-15T22:30:30.471Z,100185.59
2023-04-15T22:33:32.856Z,100203.56
2023-04-15T22:36:35.489Z,100206.69
2023-04-15T22:39:37.838Z,100201.91
2023-04-15T22:42:40.212Z,100203.50
2023-04-15T22:45:42.538Z,100206.16
2023-04-15T22:48:44.892Z,100215.22
2023-04-15T22:51:47.258Z,100209.00
2023-04-15T22:54:49.638Z,100204.59
2023-04-15T22:57:52.814Z,100219.41
2023-04-15T23:00:55.351Z,100211.97
2023-04-15T23:04:04.382Z,100195.88
2023-04-15T23:07:09.394Z,100201.34
2023-04-15T23:10:11.749Z,100224.13
2023-04-15T23:13:14.090Z,100209.19
2023-04-15T23:16:16.571Z,100222.06
2023-04-15T23:19:19.071Z,100204.84
2023-04-15T23:22:21.535Z,100219.78
2023-04-15T23:25:24.020Z,100220.91
2023-04-15T23:28:26.325Z,100227.50
2023-04-15T23:31:28.726Z,100185.56
2023-04-15T23:34:31.134Z,100219.34
2023-04-15T23:37:33.462Z,100220.88
2023-04-15T23:40:35.839Z,100218.16
2023-04-15T23:43:38.225Z,100206.34
2023-04-15T23:46:40.755Z,100216.16
2023-04-15T23:49:43.162Z,100204.00
2023-04-15T23:52:45.556Z,100219.66
2023-04-15T23:55:49.100Z,100195.66
2023-04-15T23:58:51.418Z,100223.53
